Aviation Digital Data Service (ADDS)

Output produced by METARs form (1624 UTC 28 July 2014)
found at http://aviationweather.gov/adds/metars/
 
KGNV 281600Z 2816/2912 26010G18KT P6SM VCSH SCT035 SCT250 
     TEMPO 2816/2819 VRB15G25KT 4SM SHRA BKN030 
     FM290200 25010KT P6SM SCT030 BKN250